sensor_id;sensor_type;location;lat;lon;timestamp;pressure;altitude;pressure_sealevel;temperature;humidity
40918;BME280;26644;50.248;19.032;2023-05-10T00:02:18;98370.78;;;8.95;52.23
40918;BME280;26644;50.248;19.032;2023-05-10T00:05:23;98368.00;;;8.90;52.38
40918;BME280;26644;50.248;19.032;2023-05-10T00:08:28;98365.78;;;8.82;52.65
40918;BME280;26644;50.248;19.032;2023-05-10T00:11:33;98362.50;;;8.75;52.76
40918;BME280;26644;50.248;19.032;2023-05-10T00:14:38;98359.44;;;8.66;53.00
40918;BME280;26644;50.248;19.032;2023-05-10T00:17:45;98361.06;;;8.57;53.20
40918;BME280;26644;50.248;19.032;2023-05-10T00:20:50;98354.47;;;8.53;53.40
40918;BME280;26644;50.248;19.032;2023-05-10T00:23:55;98360.75;;;8.53;53.34
40918;BME280;26644;50.248;19.032;2023-05-10T00:27:00;98355.03;;;8.50;53.51
40918;BME280;26644;50.248;19.032;2023-05-10T00:30:06;98354.72;;;8.46;53.59
40918;BME280;26644;50.248;19.032;2023-05-10T00:33:15;98359.38;;;8.40;53.88
40918;BME280;26644;50.248;19.032;2023-05-10T00:36:19;98345.38;;;8.37;53.95
40918;BME280;26644;50.248;19.032;2023-05-10T00:39:24;98348.94;;;8.32;54.06
40918;BME280;26644;50.248;19.032;2023-05-10T00:42:29;98334.41;;;8.26;54.36
40918;BME280;26644;50.248;19.032;2023-05-10T00:45:36;98340.41;;;8.23;54.25
40918;BME280;26644;50.248;19.032;2023-05-10T00:48:46;98340.09;;;8.20;54.60
40918;BME280;26644;50.248;19.032;2023-05-10T00:51:51;98341.72;;;8.16;54.79
40918;BME280;26644;50.248;19.032;2023-05-10T00:54:56;98340.06;;;8.15;54.85
40918;BME280;26644;50.248;19.032;2023-05-10T00:58:02;98330.19;;;8.03;54.94
40918;BME280;26644;50.248;19.032;2023-05-10T01:01:07;98335.69;;;8.08;55.20
40918;BME280;26644;50.248;19.032;2023-05-10T01:04:17;98335.41;;;8.10;55.11
40918;BME280;26644;50.248;19.032;2023-05-10T01:07:26;98327.50;;;8.08;54.94
40918;BME280;26644;50.248;19.032;2023-05-10T01:10:31;98320.59;;;8.01;55.07
40918;BME280;26644;50.248;19.032;2023-05-10T01:13:41;98323.06;;;8.02;55.06
40918;BME280;26644;50.248;19.032;2023-05-10T01:16:49;98320.31;;;7.97;55.25
40918;BME280;26644;50.248;19.032;2023-05-10T01:19:57;98313.47;;;7.94;55.44
40918;BME280;26644;50.248;19.032;2023-05-10T01:34:35;98321.06;;;7.82;55.74
40918;BME280;26644;50.248;19.032;2023-05-10T01:37:58;98319.94;;;7.78;56.35
40918;BME280;26644;50.248;19.032;2023-05-10T01:41:17;98309.78;;;7.73;56.22
40918;BME280;26644;50.248;19.032;2023-05-10T01:44:33;98313.34;;;7.74;56.04
40918;BME280;26644;50.248;19.032;2023-05-10T01:47:48;98306.19;;;7.68;56.38
40918;BME280;26644;50.248;19.032;2023-05-10T01:51:00;98309.19;;;7.66;56.49
40918;BME280;26644;50.248;19.032;2023-05-10T01:54:11;98296.81;;;7.53;56.71
40918;BME280;26644;50.248;19.032;2023-05-10T01:57:20;98300.34;;;7.49;56.83
40918;BME280;26644;50.248;19.032;2023-05-10T02:00:32;98311.00;;;7.50;57.09
40918;BME280;26644;50.248;19.032;2023-05-10T02:03:39;98304.47;;;7.51;57.04
40918;BME280;26644;50.248;19.032;2023-05-10T02:06:52;98298.72;;;7.53;57.08
40918;BME280;26644;50.248;19.032;2023-05-10T02:10:01;98289.66;;;7.47;57.28
40918;BME280;26644;50.248;19.032;2023-05-10T02:13:10;98283.34;;;7.41;57.63
40918;BME280;26644;50.248;19.032;2023-05-10T02:16:18;98279.50;;;7.37;57.90
40918;BME280;26644;50.248;19.032;2023-05-10T02:19:31;98291.00;;;7.39;57.85
40918;BME280;26644;50.248;19.032;2023-05-10T02:22:42;98296.41;;;7.34;58.15
40918;BME280;26644;50.248;19.032;2023-05-10T02:25:52;98286.88;;;7.37;58.24
40918;BME280;26644;50.248;19.032;2023-05-10T02:28:59;98284.38;;;7.35;58.19
40918;BME280;26644;50.248;19.032;2023-05-10T02:32:09;98279.16;;;7.28;58.27
40918;BME280;26644;50.248;19.032;2023-05-10T02:35:16;98287.34;;;7.28;58.57
40918;BME280;26644;50.248;19.032;2023-05-10T02:38:25;98283.44;;;7.19;58.34
40918;BME280;26644;50.248;19.032;2023-05-10T02:41:32;98283.44;;;7.19;58.45
40918;BME280;26644;50.248;19.032;2023-05-10T02:44:41;98282.91;;;7.17;58.43
40918;BME280;26644;50.248;19.032;2023-05-10T02:47:47;98289.16;;;7.18;58.82
40918;BME280;26644;50.248;19.032;2023-05-10T02:50:56;98282.31;;;7.15;58.80
40918;BME280;26644;50.248;19.032;2023-05-10T02:54:15;98282.03;;;7.11;59.00
40918;BME280;26644;50.248;19.032;2023-05-10T02:57:28;98289.91;;;7.08;59.02
40918;BME280;26644;50.248;19.032;2023-05-10T03:00:36;98279.19;;;7.01;59.15
40918;BME280;26644;50.248;19.032;2023-05-10T03:03:41;98290.38;;;7.00;59.19
40918;BME280;26644;50.248;19.032;2023-05-10T03:06:46;98285.94;;;6.93;59.54
40918;BME280;26644;50.248;19.032;2023-05-10T03:09:55;98274.13;;;6.83;59.42
40918;BME280;26644;50.248;19.032;2023-05-10T03:13:10;98291.28;;;6.83;59.55
40918;BME280;26644;50.248;19.032;2023-05-10T03:16:27;98273.19;;;6.72;59.72
40918;BME280;26644;50.248;19.032;2023-05-10T03:19:44;98280.59;;;6.76;59.94
40918;BME280;26644;50.248;19.032;2023-05-10T03:23:00;98279.47;;;6.72;60.12
40918;BME280;26644;50.248;19.032;2023-05-10T03:26:17;98279.09;;;6.64;60.17
40918;BME280;26644;50.248;19.032;2023-05-10T03:29:34;98285.19;;;6.71;60.34
40918;BME280;26644;50.248;19.032;2023-05-10T03:32:41;98284.16;;;6.77;60.62
40918;BME280;26644;50.248;19.032;2023-05-10T03:35:47;98270.25;;;6.78;60.84
40918;BME280;26644;50.248;19.032;2023-05-10T03:38:52;98272.88;;;6.95;60.89
40918;BME280;26644;50.248;19.032;2023-05-10T03:42:00;98279.56;;;7.10;60.46
40918;BME280;26644;50.248;19.032;2023-05-10T03:45:07;98271.19;;;7.22;60.93
40918;BME280;26644;50.248;19.032;2023-05-10T03:48:13;98277.41;;;7.55;60.48
40918;BME280;26644;50.248;19.032;2023-05-10T03:51:18;98271.06;;;7.92;59.34
40918;BME280;26644;50.248;19.032;2023-05-10T03:54:24;98277.81;;;8.42;57.86
40918;BME280;26644;50.248;19.032;2023-05-10T03:57:31;98279.59;;;8.95;56.16
40918;BME280;26644;50.248;19.032;2023-05-10T04:00:37;98278.81;;;9.41;54.51
40918;BME280;26644;50.248;19.032;2023-05-10T04:03:45;98282.53;;;9.91;53.50
40918;BME280;26644;50.248;19.032;2023-05-10T04:06:50;98294.16;;;10.33;52.04
40918;BME280;26644;50.248;19.032;2023-05-10T04:09:56;98283.56;;;10.71;51.32
40918;BME280;26644;50.248;19.032;2023-05-10T04:13:04;98291.69;;;11.26;50.23
40918;BME280;26644;50.248;19.032;2023-05-10T04:16:08;98288.94;;;11.61;49.14
40918;BME280;26644;50.248;19.032;2023-05-10T04:19:14;98295.69;;;11.98;48.05
40918;BME280;26644;50.248;19.032;2023-05-10T04:22:18;98299.66;;;12.35;47.44
40918;BME280;26644;50.248;19.032;2023-05-10T04:25:23;98283.97;;;12.79;46.30
40918;BME280;26644;50.248;19.032;2023-05-10T04:28:30;98299.72;;;13.31;44.94
40918;BME280;26644;50.248;19.032;2023-05-10T04:31:36;98306.50;;;13.71;43.39
40918;BME280;26644;50.248;19.032;2023-05-10T04:34:40;98300.38;;;14.02;42.53
40918;BME280;26644;50.248;19.032;2023-05-10T04:37:45;98292.75;;;14.27;42.42
40918;BME280;26644;50.248;19.032;2023-05-10T04:40:50;98307.38;;;14.55;41.07
40918;BME280;26644;50.248;19.032;2023-05-10T04:43:58;98295.56;;;14.77;40.42
40918;BME280;26644;50.248;19.032;2023-05-10T04:47:02;98296.72;;;14.99;39.61
40918;BME280;26644;50.248;19.032;2023-05-10T04:50:08;98309.03;;;14.93;39.73
40918;BME280;26644;50.248;19.032;2023-05-10T04:53:13;98303.69;;;14.46;39.99
40918;BME280;26644;50.248;19.032;2023-05-10T04:56:18;98307.66;;;13.98;41.08
40918;BME280;26644;50.248;19.032;2023-05-10T04:59:25;98300.13;;;13.57;41.38
40918;BME280;26644;50.248;19.032;2023-05-10T05:02:30;98301.22;;;13.04;42.80
40918;BME280;26644;50.248;19.032;2023-05-10T05:05:35;98286.88;;;12.69;43.52
40918;BME280;26644;50.248;19.032;2023-05-10T05:08:40;98296.91;;;12.35;44.48
40918;BME280;26644;50.248;19.032;2023-05-10T05:11:44;98284.53;;;12.14;45.33
40918;BME280;26644;50.248;19.032;2023-05-10T05:14:52;98286.38;;;11.94;45.30
40918;BME280;26644;50.248;19.032;2023-05-10T05:17:57;98283.97;;;11.87;45.44
40918;BME280;26644;50.248;19.032;2023-05-10T05:21:03;98283.16;;;12.35;45.75
40918;BME280;26644;50.248;19.032;2023-05-10T05:24:07;98285.94;;;13.11;43.99
40918;BME280;26644;50.248;19.032;2023-05-10T05:27:14;98294.03;;;13.74;42.08
40918;BME280;26644;50.248;19.032;2023-05-10T05:30:21;98298.78;;;14.43;41.38
40918;BME280;26644;50.248;19.032;2023-05-10T05:33:26;98290.59;;;15.25;39.94
40918;BME280;26644;50.248;19.032;2023-05-10T05:36:31;98301.53;;;16.07;38.65
40918;BME280;26644;50.248;19.032;2023-05-10T05:39:36;98298.19;;;16.94;36.92
40918;BME280;26644;50.248;19.032;2023-05-10T05:42:41;98294.56;;;17.72;35.99
40918;BME280;26644;50.248;19.032;2023-05-10T05:45:49;98304.06;;;18.57;34.69
40918;BME280;26644;50.248;19.032;2023-05-10T05:48:55;98299.00;;;19.23;33.68
40918;BME280;26644;50.248;19.032;2023-05-10T05:52:01;98312.38;;;19.84;32.14
40918;BME280;26644;50.248;19.032;2023-05-10T05:55:07;98302.16;;;20.34;31.57
40918;BME280;26644;50.248;19.032;2023-05-10T05:58:12;98306.31;;;20.78;31.57
40918;BME280;26644;50.248;19.032;2023-05-10T06:01:20;98308.19;;;21.26;30.51
40918;BME280;26644;50.248;19.032;2023-05-10T06:04:25;98305.34;;;21.80;30.08
40918;BME280;26644;50.248;19.032;2023-05-10T06:07:29;98309.13;;;22.19;28.86
40918;BME280;26644;50.248;19.032;2023-05-10T06:10:35;98308.84;;;22.72;28.07
40918;BME280;26644;50.248;19.032;2023-05-10T06:13:42;98300.63;;;23.15;28.18
40918;BME280;26644;50.248;19.032;2023-05-10T06:16:51;98310.38;;;23.41;26.64
40918;BME280;26644;50.248;19.032;2023-05-10T06:19:56;98311.81;;;23.51;27.09
40918;BME280;26644;50.248;19.032;2023-05-10T06:23:01;98318.81;;;23.84;26.14
40918;BME280;26644;50.248;19.032;2023-05-10T06:26:05;98316.31;;;23.98;26.44
40918;BME280;26644;50.248;19.032;2023-05-10T06:29:11;98306.44;;;23.85;26.01
40918;BME280;26644;50.248;19.032;2023-05-10T06:32:18;98325.31;;;24.07;26.07
40918;BME280;26644;50.248;19.032;2023-05-10T06:35:24;98333.91;;;24.18;25.43
40918;BME280;26644;50.248;19.032;2023-05-10T06:38:28;98314.41;;;24.02;25.17
40918;BME280;26644;50.248;19.032;2023-05-10T06:41:34;98309.81;;;24.14;24.60
40918;BME280;26644;50.248;19.032;2023-05-10T06:44:38;98323.38;;;24.35;24.83
40918;BME280;26644;50.248;19.032;2023-05-10T06:47:46;98325.31;;;24.31;24.09
40918;BME280;26644;50.248;19.032;2023-05-10T06:50:50;98312.97;;;24.35;24.64
40918;BME280;26644;50.248;19.032;2023-05-10T06:53:56;98323.72;;;24.56;24.04
40918;BME280;26644;50.248;19.032;2023-05-10T06:57:00;98309.75;;;24.33;24.28
40918;BME280;26644;50.248;19.032;2023-05-10T07:00:07;98311.47;;;24.92;24.16
40918;BME280;26644;50.248;19.032;2023-05-10T07:03:15;98306.63;;;25.49;23.47
40918;BME280;26644;50.248;19.032;2023-05-10T07:06:21;98310.16;;;25.77;22.71
40918;BME280;26644;50.248;19.032;2023-05-10T07:09:25;98305.50;;;25.92;22.71
40918;BME280;26644;50.248;19.032;2023-05-10T07:12:30;98301.97;;;25.64;22.60
40918;BME280;26644;50.248;19.032;2023-05-10T07:15:35;98307.78;;;25.14;22.88
40918;BME280;26644;50.248;19.032;2023-05-10T07:18:43;98304.56;;;25.43;22.82
40918;BME280;26644;50.248;19.032;2023-05-10T07:21:47;98304.22;;;25.85;21.69
40918;BME280;26644;50.248;19.032;2023-05-10T07:24:53;98312.44;;;25.98;21.83
40918;BME280;26644;50.248;19.032;2023-05-10T07:27:58;98304.28;;;26.27;22.29
40918;BME280;26644;50.248;19.032;2023-05-10T07:31:03;98295.75;;;26.64;22.12
40918;BME280;26644;50.248;19.032;2023-05-10T07:34:10;98293.47;;;26.84;21.29
40918;BME280;26644;50.248;19.032;2023-05-10T07:37:15;98298.06;;;27.11;21.50
40918;BME280;26644;50.248;19.032;2023-05-10T07:40:20;98301.00;;;27.32;20.39
40918;BME280;26644;50.248;19.032;2023-05-10T07:43:25;98302.13;;;27.24;20.08
40918;BME280;26644;50.248;19.032;2023-05-10T07:46:29;98289.47;;;26.85;20.13
40918;BME280;26644;50.248;19.032;2023-05-10T07:49:37;98292.81;;;26.05;20.28
40918;BME280;26644;50.248;19.032;2023-05-10T07:52:42;98286.69;;;25.28;21.45
40918;BME280;26644;50.248;19.032;2023-05-10T07:55:50;98280.09;;;25.13;21.13
40918;BME280;26644;50.248;19.032;2023-05-10T07:58:55;98290.56;;;25.46;21.23
40918;BME280;26644;50.248;19.032;2023-05-10T08:02:01;98297.22;;;25.34;21.19
40918;BME280;26644;50.248;19.032;2023-05-10T08:05:08;98288.59;;;25.20;21.08
40918;BME280;26644;50.248;19.032;2023-05-10T08:08:14;98282.97;;;24.89;20.88
40918;BME280;26644;50.248;19.032;2023-05-10T08:11:19;98279.06;;;23.55;22.73
40918;BME280;26644;50.248;19.032;2023-05-10T08:14:24;98277.47;;;23.77;22.80
40918;BME280;26644;50.248;19.032;2023-05-10T08:17:29;98276.47;;;24.32;22.15
40918;BME280;26644;50.248;19.032;2023-05-10T08:20:37;98261.06;;;24.22;21.99
40918;BME280;26644;50.248;19.032;2023-05-10T08:23:42;98276.69;;;24.00;22.52
40918;BME280;26644;50.248;19.032;2023-05-10T08:26:48;98267.59;;;22.85;22.96
40918;BME280;26644;50.248;19.032;2023-05-10T08:29:53;98279.31;;;23.11;22.69
40918;BME280;26644;50.248;19.032;2023-05-10T08:32:58;98273.00;;;23.53;21.66
40918;BME280;26644;50.248;19.032;2023-05-10T08:36:05;98274.56;;;23.31;22.08
40918;BME280;26644;50.248;19.032;2023-05-10T08:39:10;98274.06;;;22.70;22.51
40918;BME280;26644;50.248;19.032;2023-05-10T08:42:19;98275.97;;;23.60;21.89
40918;BME280;26644;50.248;19.032;2023-05-10T08:45:32;98276.84;;;24.57;21.73
40918;BME280;26644;50.248;19.032;2023-05-10T08:48:41;98257.63;;;24.32;21.92
40918;BME280;26644;50.248;19.032;2023-05-10T08:51:52;98269.53;;;24.26;22.22
40918;BME280;26644;50.248;19.032;2023-05-10T08:54:59;98264.28;;;24.74;21.77
40918;BME280;26644;50.248;19.032;2023-05-10T08:58:05;98281.91;;;25.01;21.25
40918;BME280;26644;50.248;19.032;2023-05-10T09:01:11;98268.44;;;24.84;21.30
40918;BME280;26644;50.248;19.032;2023-05-10T09:04:19;98281.81;;;24.17;21.90
40918;BME280;26644;50.248;19.032;2023-05-10T09:07:27;98275.91;;;24.22;21.74
40918;BME280;26644;50.248;19.032;2023-05-10T09:10:33;98274.22;;;24.18;22.01
40918;BME280;26644;50.248;19.032;2023-05-10T09:13:37;98267.91;;;24.24;21.89
40918;BME280;26644;50.248;19.032;2023-05-10T09:16:43;98274.56;;;24.39;21.54
40918;BME280;26644;50.248;19.032;2023-05-10T09:19:48;98247.56;;;24.54;21.53
40918;BME280;26644;50.248;19.032;2023-05-10T09:22:56;98272.13;;;23.68;22.28
40918;BME280;26644;50.248;19.032;2023-05-10T09:26:04;98263.53;;;23.81;22.32
40918;BME280;26644;50.248;19.032;2023-05-10T09:29:11;98265.78;;;24.18;21.98
40918;BME280;26644;50.248;19.032;2023-05-10T09:32:15;98263.28;;;23.89;22.01
40918;BME280;26644;50.248;19.032;2023-05-10T09:35:23;98276.00;;;24.30;21.89
40918;BME280;26644;50.248;19.032;2023-05-10T09:38:45;98268.16;;;24.39;21.74
40918;BME280;26644;50.248;19.032;2023-05-10T09:41:51;98271.19;;;24.53;21.67
40918;BME280;26644;50.248;19.032;2023-05-10T09:45:00;98268.47;;;24.61;21.93
40918;BME280;26644;50.248;19.032;2023-05-10T09:48:06;98252.38;;;24.81;21.63
40918;BME280;26644;50.248;19.032;2023-05-10T09:51:18;98262.13;;;24.90;21.68
40918;BME280;26644;50.248;19.032;2023-05-10T09:54:27;98265.50;;;25.03;21.48
40918;BME280;26644;50.248;19.032;2023-05-10T09:57:31;98266.41;;;25.42;21.51
40918;BME280;26644;50.248;19.032;2023-05-10T10:00:38;98273.94;;;25.03;21.38
40918;BME280;26644;50.248;19.032;2023-05-10T10:03:44;98270.53;;;24.90;21.68
40918;BME280;26644;50.248;19.032;2023-05-10T10:06:59;98259.50;;;24.24;22.02
40918;BME280;26644;50.248;19.032;2023-05-10T10:10:09;98257.19;;;24.30;22.23
40918;BME280;26644;50.248;19.032;2023-05-10T10:13:15;98250.44;;;24.62;21.86
40918;BME280;26644;50.248;19.032;2023-05-10T10:16:20;98251.53;;;24.53;21.75
40918;BME280;26644;50.248;19.032;2023-05-10T10:19:26;98244.38;;;24.06;22.76
40918;BME280;26644;50.248;19.032;2023-05-10T10:22:31;98241.03;;;23.77;22.94
40918;BME280;26644;50.248;19.032;2023-05-10T10:25:39;98233.22;;;24.10;22.92
40918;BME280;26644;50.248;19.032;2023-05-10T10:28:55;98238.84;;;24.36;22.87
40918;BME280;26644;50.248;19.032;2023-05-10T10:32:22;98223.47;;;24.53;22.83
40918;BME280;26644;50.248;19.032;2023-05-10T10:35:35;98192.69;;;24.61;22.46
40918;BME280;26644;50.248;19.032;2023-05-10T10:39:07;98226.81;;;24.89;21.96
40918;BME280;26644;50.248;19.032;2023-05-10T10:42:46;98221.97;;;24.86;22.76
40918;BME280;26644;50.248;19.032;2023-05-10T10:46:10;98203.31;;;24.71;22.17
40918;BME280;26644;50.248;19.032;2023-05-10T10:49:16;98198.81;;;24.39;22.23
40918;BME280;26644;50.248;19.032;2023-05-10T10:52:24;98209.63;;;23.68;23.00
40918;BME280;26644;50.248;19.032;2023-05-10T10:55:32;98203.31;;;22.53;24.04
40918;BME280;26644;50.248;19.032;2023-05-10T10:58:40;98196.56;;;22.54;24.04
40918;BME280;26644;50.248;19.032;2023-05-10T11:01:52;98189.69;;;22.00;24.33
40918;BME280;26644;50.248;19.032;2023-05-10T11:04:58;98176.59;;;21.72;24.77
40918;BME280;26644;50.248;19.032;2023-05-10T11:08:09;98181.09;;;21.61;25.15
40918;BME280;26644;50.248;19.032;2023-05-10T11:11:19;98173.22;;;21.35;25.85
40918;BME280;26644;50.248;19.032;2023-05-10T11:14:26;98192.22;;;21.01;26.12
40918;BME280;26644;50.248;19.032;2023-05-10T11:17:34;98184.50;;;20.82;25.71
40918;BME280;26644;50.248;19.032;2023-05-10T11:20:39;98177.53;;;20.75;26.20
40918;BME280;26644;50.248;19.032;2023-05-10T11:23:49;98177.50;;;20.47;27.00
40918;BME280;26644;50.248;19.032;2023-05-10T11:26:57;98170.66;;;20.32;27.33
40918;BME280;26644;50.248;19.032;2023-05-10T11:30:10;98181.56;;;20.37;27.39
40918;BME280;26644;50.248;19.032;2023-05-10T11:33:16;98181.91;;;20.36;27.53
40918;BME280;26644;50.248;19.032;2023-05-10T11:36:25;98163.78;;;20.42;27.08
40918;BME280;26644;50.248;19.032;2023-05-10T11:39:32;98166.09;;;20.40;27.05
40918;BME280;26644;50.248;19.032;2023-05-10T11:42:37;98161.25;;;20.37;27.10
40918;BME280;26644;50.248;19.032;2023-05-10T11:45:45;98163.47;;;20.31;27.56
40918;BME280;26644;50.248;19.032;2023-05-10T11:48:52;98167.09;;;20.19;27.91
40918;BME280;26644;50.248;19.032;2023-05-10T11:52:05;98157.41;;;20.04;27.85
40918;BME280;26644;50.248;19.032;2023-05-10T11:55:12;98163.81;;;20.30;28.37
40918;BME280;26644;50.248;19.032;2023-05-10T11:58:18;98154.47;;;20.50;27.61
40918;BME280;26644;50.248;19.032;2023-05-10T12:01:28;98165.75;;;20.54;27.81
40918;BME280;26644;50.248;19.032;2023-05-10T12:04:33;98174.38;;;19.99;28.06
40918;BME280;26644;50.248;19.032;2023-05-10T12:07:38;98159.28;;;19.88;28.42
40918;BME280;26644;50.248;19.032;2023-05-10T12:10:43;98156.25;;;19.81;28.60
40918;BME280;26644;50.248;19.032;2023-05-10T12:13:48;98148.59;;;19.77;28.47
40918;BME280;26644;50.248;19.032;2023-05-10T12:16:57;98158.94;;;19.19;29.24
40918;BME280;26644;50.248;19.032;2023-05-10T12:20:13;98152.78;;;19.13;29.33
40918;BME280;26644;50.248;19.032;2023-05-10T12:23:21;98163.91;;;19.47;29.58
40918;BME280;26644;50.248;19.032;2023-05-10T12:26:28;98158.25;;;19.68;28.74
40918;BME280;26644;50.248;19.032;2023-05-10T12:29:33;98150.47;;;19.73;28.84
40918;BME280;26644;50.248;19.032;2023-05-10T12:32:41;98142.00;;;19.82;28.61
40918;BME280;26644;50.248;19.032;2023-05-10T12:35:49;98147.09;;;19.68;28.86
40918;BME280;26644;50.248;19.032;2023-05-10T12:39:02;98148.16;;;19.75;28.53
40918;BME280;26644;50.248;19.032;2023-05-10T12:42:07;98148.16;;;19.75;28.99
40918;BME280;26644;50.248;19.032;2023-05-10T12:45:12;98142.31;;;19.81;28.67
40918;BME280;26644;50.248;19.032;2023-05-10T12:48:19;98146.28;;;19.92;28.50
40918;BME280;26644;50.248;19.032;2023-05-10T12:51:25;98143.97;;;19.94;28.46
40918;BME280;26644;50.248;19.032;2023-05-10T12:54:29;98131.88;;;19.90;28.25
40918;BME280;26644;50.248;19.032;2023-05-10T12:57:35;98133.06;;;19.89;28.44
40918;BME280;26644;50.248;19.032;2023-05-10T13:00:39;98138.88;;;19.84;28.48
40918;BME280;26644;50.248;19.032;2023-05-10T13:03:48;98129.34;;;19.48;28.80
40918;BME280;26644;50.248;19.032;2023-05-10T13:06:52;98141.06;;;19.66;28.98
40918;BME280;26644;50.248;19.032;2023-05-10T13:10:00;98123.78;;;19.72;28.78
40918;BME280;26644;50.248;19.032;2023-05-10T13:13:04;98125.63;;;19.81;28.89
40918;BME280;26644;50.248;19.032;2023-05-10T13:16:10;98117.63;;;19.79;28.44
40918;BME280;26644;50.248;19.032;2023-05-10T13:19:17;98125.28;;;19.95;28.42
40918;BME280;26644;50.248;19.032;2023-05-10T13:22:22;98120.50;;;19.95;28.38
40918;BME280;26644;50.248;19.032;2023-05-10T13:25:27;98121.44;;;19.99;29.10
40918;BME280;26644;50.248;19.032;2023-05-10T13:28:32;98119.13;;;20.01;28.86
40918;BME280;26644;50.248;19.032;2023-05-10T13:31:37;98116.69;;;20.00;28.72
40918;BME280;26644;50.248;19.032;2023-05-10T13:34:45;98109.84;;;19.97;28.84
40918;BME280;26644;50.248;19.032;2023-05-10T13:37:49;98113.22;;;20.15;28.67
40918;BME280;26644;50.248;19.032;2023-05-10T13:40:55;98114.94;;;20.20;28.33
40918;BME280;26644;50.248;19.032;2023-05-10T13:43:59;98104.94;;;20.19;28.46
40918;BME280;26644;50.248;19.032;2023-05-10T13:47:05;98079.75;;;20.03;28.38
40918;BME280;26644;50.248;19.032;2023-05-10T13:50:12;98109.81;;;20.09;28.27
40918;BME280;26644;50.248;19.032;2023-05-10T13:53:17;98095.78;;;19.93;28.36
40918;BME280;26644;50.248;19.032;2023-05-10T13:56:22;98087.44;;;19.93;28.54
40918;BME280;26644;50.248;19.032;2023-05-10T13:59:29;98093.94;;;19.85;28.98
40918;BME280;26644;50.248;19.032;2023-05-10T14:02:33;98086.75;;;19.84;29.00
40918;BME280;26644;50.248;19.032;2023-05-10T14:05:41;98091.38;;;19.80;29.07
40918;BME280;26644;50.248;19.032;2023-05-10T14:08:46;98079.44;;;19.80;28.83
40918;BME280;26644;50.248;19.032;2023-05-10T14:11:51;98081.63;;;19.74;28.83
40918;BME280;26644;50.248;19.032;2023-05-10T14:14:56;98081.78;;;19.65;29.09
40918;BME280;26644;50.248;19.032;2023-05-10T14:18:02;98080.72;;;19.70;29.12
40918;BME280;26644;50.248;19.032;2023-05-10T14:21:09;98074.81;;;19.71;28.93
40918;BME280;26644;50.248;19.032;2023-05-10T14:24:14;98076.41;;;19.72;29.25
40918;BME280;26644;50.248;19.032;2023-05-10T14:27:19;98072.28;;;19.66;29.12
40918;BME280;26644;50.248;19.032;2023-05-10T14:30:24;98073.88;;;19.67;29.26
40918;BME280;26644;50.248;19.032;2023-05-10T14:33:29;98066.25;;;19.52;29.12
40918;BME280;26644;50.248;19.032;2023-05-10T14:36:37;98076.66;;;19.55;29.43
40918;BME280;26644;50.248;19.032;2023-05-10T14:39:41;98072.38;;;19.57;29.08
40918;BME280;26644;50.248;19.032;2023-05-10T14:42:47;98067.50;;;19.67;28.95
40918;BME280;26644;50.248;19.032;2023-05-10T14:45:51;98070.06;;;19.72;29.40
40918;BME280;26644;50.248;19.032;2023-05-10T14:48:56;98076.53;;;19.76;28.93
40918;BME280;26644;50.248;19.032;2023-05-10T14:52:03;98073.97;;;19.83;29.22
40918;BME280;26644;50.248;19.032;2023-05-10T14:55:09;98067.97;;;19.81;29.13
40918;BME280;26644;50.248;19.032;2023-05-10T14:58:14;98067.81;;;19.90;29.31
40918;BME280;26644;50.248;19.032;2023-05-10T15:01:19;98067.25;;;19.84;29.18
40918;BME280;26644;50.248;19.032;2023-05-10T15:04:23;98070.38;;;19.83;29.35
40918;BME280;26644;50.248;19.032;2023-05-10T15:07:31;98074.69;;;19.80;29.37
40918;BME280;26644;50.248;19.032;2023-05-10T15:10:36;98072.25;;;19.79;29.38
40918;BME280;26644;50.248;19.032;2023-05-10T15:13:41;98065.41;;;19.76;29.47
40918;BME280;26644;50.248;19.032;2023-05-10T15:16:46;98056.94;;;19.60;29.21
40918;BME280;26644;50.248;19.032;2023-05-10T15:19:51;98061.47;;;19.52;29.60
40918;BME280;26644;50.248;19.032;2023-05-10T15:22:58;98062.16;;;19.62;29.38
40918;BME280;26644;50.248;19.032;2023-05-10T15:26:05;98052.41;;;19.68;29.03
40918;BME280;26644;50.248;19.032;2023-05-10T15:29:09;98062.63;;;19.76;29.11
40918;BME280;26644;50.248;19.032;2023-05-10T15:32:21;98064.38;;;19.43;29.38
40918;BME280;26644;50.248;19.032;2023-05-10T15:35:26;98053.41;;;19.26;29.36
40918;BME280;26644;50.248;19.032;2023-05-10T15:38:36;98065.19;;;19.32;29.54
40918;BME280;26644;50.248;19.032;2023-05-10T15:41:41;98060.56;;;19.36;29.73
40918;BME280;26644;50.248;19.032;2023-05-10T15:44:46;98053.25;;;19.43;29.74
40918;BME280;26644;50.248;19.032;2023-05-10T15:47:51;98057.97;;;19.55;29.67
40918;BME280;26644;50.248;19.032;2023-05-10T15:50:56;98053.34;;;19.59;29.68
40918;BME280;26644;50.248;19.032;2023-05-10T15:54:03;98062.50;;;19.72;29.58
40918;BME280;26644;50.248;19.032;2023-05-10T15:57:10;98065.88;;;19.78;29.64
40918;BME280;26644;50.248;19.032;2023-05-10T16:00:15;98065.50;;;19.67;29.59
40918;BME280;26644;50.248;19.032;2023-05-10T16:03:21;98063.56;;;19.68;29.92
40918;BME280;26644;50.248;19.032;2023-05-10T16:06:25;98060.75;;;19.55;29.71
40918;BME280;26644;50.248;19.032;2023-05-10T16:09:33;98066.81;;;19.57;29.50
40918;BME280;26644;50.248;19.032;2023-05-10T16:12:38;98077.38;;;19.52;29.66
40918;BME280;26644;50.248;19.032;2023-05-10T16:15:43;98076.66;;;19.42;29.78
40918;BME280;26644;50.248;19.032;2023-05-10T16:18:48;98071.09;;;19.42;30.06
40918;BME280;26644;50.248;19.032;2023-05-10T16:21:53;98069.00;;;19.39;30.13
40918;BME280;26644;50.248;19.032;2023-05-10T16:25:01;98065.41;;;19.39;30.50
40918;BME280;26644;50.248;19.032;2023-05-10T16:28:06;98070.41;;;19.33;30.49
40918;BME280;26644;50.248;19.032;2023-05-10T16:31:11;98069.66;;;19.24;30.74
40918;BME280;26644;50.248;19.032;2023-05-10T16:34:16;98078.25;;;19.19;31.09